createdAt,value
2023-04-01T00:01:49.050Z,1.50
2023-04-01T00:04:52.356Z,1.23
2023-04-01T00:07:56.257Z,1.33
2023-04-01T00:11:00.093Z,1.55
2023-04-01T00:14:03.390Z,1.60
2023-04-01T00:17:07.220Z,1.30
2023-04-01T00:20:11.034Z,1.30
2023-04-01T00:23:16.139Z,1.37
2023-04-01T00:26:22.195Z,1.70
2023-04-01T00:29:30.261Z,1.25
2023-04-01T00:32:33.597Z,1.67
2023-04-01T00:35:37.787Z,1.90
2023-04-01T00:38:42.685Z,2.97
2023-04-01T00:41:46.308Z,2.45
2023-04-01T00:44:54.736Z,2.30
2023-04-01T00:48:03.577Z,2.10
2023-04-01T00:51:10.980Z,2.30
2023-04-01T00:54:15.575Z,2.20
2023-04-01T00:57:38.820Z,1.60
2023-04-01T01:00:43.478Z,1.40
2023-04-01T01:03:46.719Z,1.70
2023-04-01T01:07:08.418Z,1.52
2023-04-01T01:10:11.515Z,1.60
2023-04-01T01:13:30.434Z,1.83
2023-04-01T01:16:41.833Z,1.73
2023-04-01T01:20:02.724Z,2.12
2023-04-01T01:23:38.258Z,1.50
2023-04-01T01:27:04.009Z,1.52
2023-04-01T01:30:13.608Z,1.80
2023-04-01T01:33:35.580Z,1.90
2023-04-01T01:36:43.709Z,2.00
2023-04-01T01:39:52.041Z,2.00
2023-04-01T01:43:00.567Z,1.90
2023-04-01T01:46:10.679Z,1.90
2023-04-01T01:49:16.553Z,1.90
2023-04-01T01:52:20.434Z,1.77
2023-04-01T01:55:31.554Z,2.00
2023-04-01T01:58:44.179Z,2.05
2023-04-01T02:01:52.254Z,2.12
2023-04-01T02:04:56.410Z,2.10
2023-04-01T02:08:09.222Z,2.00
2023-04-01T02:11:21.068Z,2.00
2023-04-01T02:14:29.311Z,1.87
2023-04-01T02:17:35.206Z,1.70
2023-04-01T02:20:41.768Z,1.60
2023-04-01T02:23:46.908Z,1.27
2023-04-01T02:26:52.062Z,1.75
2023-04-01T02:29:55.757Z,0.95
2023-04-01T02:33:00.043Z,1.00
2023-04-01T02:36:03.372Z,1.00
2023-04-01T02:39:08.776Z,0.75
2023-04-01T02:42:12.168Z,0.90
2023-04-01T02:45:16.436Z,0.90
2023-04-01T02:48:19.743Z,0.60
2023-04-01T02:51:24.521Z,0.70
2023-04-01T02:54:28.978Z,0.90
2023-04-01T02:57:32.502Z,0.80
2023-04-01T03:00:35.952Z,0.73
2023-04-01T03:03:39.578Z,0.80
2023-04-01T03:06:42.879Z,0.60
2023-04-01T03:09:46.872Z,0.90
2023-04-01T03:12:49.893Z,0.93
2023-04-01T03:15:54.633Z,0.90
2023-04-01T03:19:00.118Z,0.98
2023-04-01T03:22:03.909Z,0.80
2023-04-01T03:25:08.809Z,0.80
2023-04-01T03:28:13.516Z,0.80
2023-04-01T03:31:17.319Z,1.17
2023-04-01T03:34:21.462Z,0.73
2023-04-01T03:37:25.613Z,0.70
2023-04-01T03:40:29.483Z,1.00
2023-04-01T03:43:33.279Z,0.80
2023-04-01T03:46:38.181Z,1.00
2023-04-01T03:49:41.544Z,0.85
2023-04-01T03:52:45.875Z,0.70
2023-04-01T03:55:52.348Z,0.90
2023-04-01T03:58:56.766Z,0.70
2023-04-01T04:01:59.903Z,0.93
2023-04-01T04:05:03.898Z,1.00
2023-04-01T04:08:07.246Z,0.90
2023-04-01T04:11:10.867Z,0.70
2023-04-01T04:14:16.150Z,0.82
2023-04-01T04:17:20.397Z,1.15
2023-04-01T04:20:23.726Z,0.70
2023-04-01T04:23:28.178Z,0.90
2023-04-01T04:26:31.579Z,0.80
2023-04-01T04:29:35.499Z,0.70
2023-04-01T04:32:38.801Z,1.00
2023-04-01T04:35:42.316Z,1.00
2023-04-01T04:38:46.124Z,0.82
2023-04-01T04:41:50.021Z,0.80
2023-04-01T04:44:54.146Z,1.20
2023-04-01T04:48:00.048Z,1.10
2023-04-01T04:51:04.951Z,1.00
2023-04-01T04:54:10.549Z,0.85
2023-04-01T04:57:16.546Z,1.80
2023-04-01T05:00:20.398Z,1.20
2023-04-01T05:03:23.989Z,1.10
2023-04-01T05:06:30.642Z,0.98
2023-04-01T05:09:35.050Z,1.10
2023-04-01T05:12:40.093Z,1.10
2023-04-01T05:15:43.486Z,1.30
2023-04-01T05:18:48.557Z,0.93
2023-04-01T05:21:52.194Z,0.98
2023-04-01T05:24:56.511Z,1.10
2023-04-01T05:27:59.977Z,1.10
2023-04-01T05:31:05.488Z,1.05
2023-04-01T05:34:09.740Z,1.10
2023-04-01T05:37:13.080Z,2.10
2023-04-01T05:40:16.718Z,2.05
2023-04-01T05:43:20.574Z,1.00
2023-04-01T05:46:25.038Z,1.30
2023-04-01T05:49:29.860Z,1.27
2023-04-01T05:52:33.458Z,1.33
2023-04-01T05:55:37.557Z,1.70
2023-04-01T05:58:41.536Z,0.90
2023-04-01T06:01:45.411Z,2.10
2023-04-01T06:04:49.575Z,1.80
2023-04-01T06:07:59.583Z,1.25
2023-04-01T06:11:12.184Z,1.53
2023-04-01T06:14:32.246Z,1.00
2023-04-01T06:17:58.888Z,1.20
2023-04-01T06:21:22.145Z,0.95
2023-04-01T06:24:32.450Z,1.20
2023-04-01T06:27:50.581Z,1.10
2023-04-01T06:31:12.951Z,0.90
2023-04-01T06:34:47.493Z,0.85
2023-04-01T06:38:09.448Z,1.10
2023-04-01T06:41:31.369Z,1.00
2023-04-01T06:45:05.347Z,0.80
2023-04-01T06:49:12.414Z,1.07
2023-04-01T06:52:31.341Z,1.17
2023-04-01T06:55:52.286Z,0.90
2023-04-01T06:59:13.740Z,0.90
2023-04-01T07:02:31.655Z,0.83
2023-04-01T07:05:37.016Z,1.10
2023-04-01T07:08:45.397Z,1.00
2023-04-01T07:11:48.925Z,0.95
2023-04-01T07:15:03.039Z,0.90
2023-04-01T07:18:52.743Z,0.83
2023-04-01T07:22:12.529Z,1.00
2023-04-01T07:25:21.920Z,0.80
2023-04-01T07:28:32.235Z,0.93
2023-04-01T07:31:49.929Z,2.25
2023-04-01T07:35:12.997Z,0.93
2023-04-01T07:38:25.981Z,0.90
2023-04-01T07:41:52.333Z,0.85
2023-04-01T07:45:02.109Z,0.98
2023-04-01T07:48:16.008Z,0.80
2023-04-01T07:51:48.130Z,0.80
2023-04-01T07:54:59.379Z,1.00
2023-04-01T07:58:50.276Z,0.98
2023-04-01T08:02:14.185Z,0.80
2023-04-01T08:05:34.344Z,0.82
2023-04-01T08:08:47.491Z,0.90
2023-04-01T08:11:59.371Z,1.00
2023-04-01T08:15:14.913Z,1.20
2023-04-01T08:18:54.506Z,1.10
2023-04-01T08:22:05.599Z,1.25
2023-04-01T08:25:17.685Z,1.60
2023-04-01T08:28:59.887Z,0.77
2023-04-01T08:32:33.523Z,0.98
2023-04-01T08:35:58.893Z,0.98
2023-04-01T08:39:20.664Z,1.02
2023-04-01T08:42:34.091Z,1.10
2023-04-01T08:45:41.788Z,0.90
2023-04-01T08:49:04.022Z,1.12
2023-04-01T08:52:13.648Z,0.82
2023-04-01T08:55:16.901Z,1.33
2023-04-01T08:58:39.683Z,0.97
2023-04-01T09:01:57.625Z,1.00
2023-04-01T09:05:32.193Z,0.98
2023-04-01T09:08:44.438Z,0.75
2023-04-01T09:11:56.800Z,0.70
2023-04-01T09:15:29.620Z,1.33
2023-04-01T09:18:45.736Z,0.80
2023-04-01T09:21:57.204Z,0.90
2023-04-01T09:25:13.811Z,0.90
2023-04-01T09:28:29.631Z,0.70
2023-04-01T09:32:11.227Z,0.90
2023-04-01T09:35:23.680Z,0.90
2023-04-01T09:38:38.393Z,0.90
2023-04-01T09:42:17.128Z,1.08
2023-04-01T09:45:39.025Z,1.30
2023-04-01T09:48:44.868Z,1.20
2023-04-01T09:52:13.567Z,1.10
2023-04-01T09:55:35.584Z,1.80
2023-04-01T09:58:43.593Z,1.00
2023-04-01T10:02:21.224Z,1.33
2023-04-01T10:05:30.429Z,1.07
2023-04-01T10:09:02.039Z,1.20
2023-04-01T10:12:27.206Z,1.40
2023-04-01T10:15:48.771Z,2.17
2023-04-01T10:19:30.329Z,4.18
2023-04-01T10:22:56.395Z,1.50
2023-04-01T10:26:38.367Z,2.20
2023-04-01T10:30:08.124Z,1.40
2023-04-01T10:33:21.488Z,1.50
2023-04-01T10:36:43.380Z,1.50
2023-04-01T10:40:02.456Z,1.77
2023-04-01T10:43:34.312Z,1.70
2023-04-01T10:47:03.989Z,2.70
2023-04-01T10:51:02.650Z,1.50
2023-04-01T10:54:18.265Z,1.48
2023-04-01T10:57:44.943Z,1.37
2023-04-01T11:00:58.854Z,1.43
2023-04-01T11:04:08.354Z,1.50
2023-04-01T11:07:32.004Z,2.20
2023-04-01T11:10:41.923Z,1.50
2023-04-01T11:14:00.361Z,1.80
2023-04-01T11:17:09.534Z,1.47
2023-04-01T11:20:46.831Z,0.98
2023-04-01T11:24:14.493Z,1.10
2023-04-01T11:27:51.453Z,1.00
2023-04-01T11:31:00.922Z,1.20
2023-04-01T11:34:11.485Z,1.40
2023-04-01T11:37:32.609Z,1.30
2023-04-01T11:40:55.839Z,1.10
2023-04-01T11:44:21.164Z,0.90
2023-04-01T11:47:52.600Z,0.93
2023-04-01T11:51:28.932Z,1.00
2023-04-01T11:55:17.955Z,1.17
2023-04-01T11:58:32.997Z,1.30
2023-04-01T12:01:57.776Z,1.37
2023-04-01T12:05:19.433Z,0.97
2023-04-01T12:08:39.768Z,0.90
2023-04-01T12:11:57.713Z,1.10
2023-04-01T12:15:16.066Z,1.02
2023-04-01T12:18:29.238Z,0.73
2023-04-01T12:21:44.857Z,1.00
2023-04-01T12:25:07.648Z,0.97
2023-04-01T12:28:21.370Z,0.90
2023-04-01T12:32:15.706Z,1.30
2023-04-01T12:35:49.702Z,0.70
2023-04-01T12:39:48.479Z,1.00
2023-04-01T12:43:03.474Z,1.30
2023-04-01T12:46:28.410Z,0.80
2023-04-01T12:49:57.969Z,0.90
2023-04-01T12:53:15.299Z,0.80
2023-04-01T12:56:29.356Z,0.70
2023-04-01T12:59:55.578Z,0.73
2023-04-01T13:03:10.603Z,0.90
2023-04-01T13:06:52.651Z,0.80
2023-04-01T13:10:05.184Z,0.80
2023-04-01T13:13:53.444Z,0.60
2023-04-01T13:16:59.803Z,0.70
2023-04-01T13:20:31.949Z,1.02
2023-04-01T13:23:38.010Z,0.93
2023-04-01T13:27:06.073Z,1.12
2023-04-01T13:30:32.230Z,1.00
2023-04-01T13:34:01.349Z,1.50
2023-04-01T13:37:04.405Z,0.90
2023-04-01T13:40:26.448Z,0.85
2023-04-01T13:43:38.531Z,1.02
2023-04-01T13:46:51.432Z,0.70
2023-04-01T13:50:21.671Z,1.03
2023-04-01T13:53:46.545Z,0.95
2023-04-01T13:57:24.005Z,0.80
2023-04-01T14:00:46.151Z,0.82
2023-04-01T14:04:10.871Z,0.80
2023-04-01T14:07:40.139Z,1.00
2023-04-01T14:11:05.768Z,0.68
2023-04-01T14:14:28.834Z,0.80
2023-04-01T14:18:06.486Z,1.40
2023-04-01T14:21:15.676Z,6.53
2023-04-01T14:24:30.265Z,0.90
2023-04-01T14:27:45.675Z,0.90
2023-04-01T14:31:21.797Z,0.98
2023-04-01T14:35:01.409Z,0.93
2023-04-01T14:38:14.028Z,0.93
2023-04-01T14:41:39.695Z,0.70
2023-04-01T14:44:54.350Z,1.27
2023-04-01T14:48:00.321Z,0.88
2023-04-01T14:51:31.023Z,1.12
2023-04-01T14:54:39.297Z,0.80
2023-04-01T14:57:43.140Z,0.80
2023-04-01T15:00:51.687Z,0.82
2023-04-01T15:04:42.541Z,0.70
2023-04-01T15:07:58.594Z,0.75
2023-04-01T15:11:28.368Z,0.57
2023-04-01T15:14:48.120Z,0.60
2023-04-01T15:18:06.837Z,0.70
2023-04-01T15:21:44.448Z,0.60
2023-04-01T15:25:18.659Z,0.70
2023-04-01T15:28:24.912Z,0.90
2023-04-01T15:31:36.466Z,0.90
2023-04-01T15:35:21.590Z,0.80
2023-04-01T15:38:33.202Z,0.70
2023-04-01T15:42:15.512Z,0.80
2023-04-01T15:45:36.427Z,0.70
2023-04-01T15:49:10.788Z,0.90
2023-04-01T15:52:26.155Z,1.05
2023-04-01T15:55:55.109Z,0.68
2023-04-01T15:59:01.541Z,0.77
2023-04-01T16:02:13.742Z,2.40
2023-04-01T16:05:26.329Z,1.50
2023-04-01T16:09:03.970Z,1.40
2023-04-01T16:12:18.997Z,1.20
2023-04-01T16:15:44.260Z,1.42
2023-04-01T16:19:22.908Z,1.10
2023-04-01T16:22:51.447Z,1.30
2023-04-01T16:26:07.003Z,0.90
2023-04-01T16:29:24.745Z,1.58
2023-04-01T16:32:51.968Z,1.00
2023-04-01T16:36:39.393Z,0.97
2023-04-01T16:40:02.841Z,1.20
2023-04-01T16:43:17.476Z,1.00
2023-04-01T16:46:37.836Z,1.27
2023-04-01T16:49:54.709Z,1.12
2023-04-01T16:53:10.067Z,1.30
2023-04-01T16:56:30.169Z,1.60
2023-04-01T16:59:47.739Z,1.77
2023-04-01T17:02:58.411Z,1.50
2023-04-01T17:06:12.808Z,2.17
2023-04-01T17:09:29.466Z,1.53
2023-04-01T17:12:44.153Z,1.90
2023-04-01T17:16:18.425Z,1.65
2023-04-01T17:19:37.973Z,1.67
2023-04-01T17:22:46.297Z,2.30
2023-04-01T17:26:23.742Z,2.23
2023-04-01T17:29:45.568Z,2.40
2023-04-01T17:33:08.488Z,4.65
2023-04-01T17:36:17.633Z,2.67
2023-04-01T17:39:47.261Z,3.47
2023-04-01T17:43:23.125Z,1.73
2023-04-01T17:46:45.991Z,2.00
2023-04-01T17:50:18.285Z,1.67
2023-04-01T17:54:04.344Z,1.85
2023-04-01T17:57:33.138Z,1.80
2023-04-01T18:01:26.973Z,2.93
2023-04-01T18:04:34.355Z,7.73
2023-04-01T18:08:10.676Z,8.45
2023-04-01T18:11:28.107Z,6.32
2023-04-01T18:14:46.320Z,5.37
2023-04-01T18:18:17.947Z,4.33
2023-04-01T18:21:34.215Z,4.65
2023-04-01T18:24:47.325Z,4.85
2023-04-01T18:28:24.573Z,4.30
2023-04-01T18:31:41.336Z,3.20
2023-04-01T18:34:58.897Z,3.23
2023-04-01T18:38:14.913Z,3.70
2023-04-01T18:41:37.177Z,4.43
2023-04-01T18:45:05.493Z,4.82
2023-04-01T18:48:34.960Z,4.30
2023-04-01T18:51:48.803Z,4.10
2023-04-01T18:55:05.010Z,3.80
2023-04-01T18:58:16.989Z,3.75
2023-04-01T19:01:45.397Z,2.62
2023-04-01T19:05:20.146Z,1.40
2023-04-01T19:08:35.530Z,1.30
2023-04-01T19:12:05.250Z,1.50
2023-04-01T19:15:27.057Z,1.23
2023-04-01T19:18:57.121Z,1.17
2023-04-01T19:22:30.911Z,1.10
2023-04-01T19:25:57.189Z,1.47
2023-04-01T19:29:26.786Z,1.00
2023-04-01T19:32:49.819Z,1.55
2023-04-01T19:36:18.421Z,1.70
2023-04-01T19:40:20.902Z,1.70
2023-04-01T19:43:37.022Z,1.40
2023-04-01T19:46:51.708Z,1.67
2023-04-01T19:50:07.800Z,1.50
2023-04-01T19:53:46.562Z,2.17
2023-04-01T19:57:12.901Z,1.87
2023-04-01T20:00:36.723Z,2.30
2023-04-01T20:03:49.932Z,2.50
2023-04-01T20:07:08.764Z,2.60
2023-04-01T20:10:28.434Z,2.67
2023-04-01T20:13:50.417Z,2.80
2023-04-01T20:17:02.770Z,3.22
2023-04-01T20:20:10.986Z,3.45
2023-04-01T20:23:33.944Z,3.10
2023-04-01T20:26:43.038Z,3.30
2023-04-01T20:30:05.834Z,3.40
2023-04-01T20:33:42.149Z,2.85
2023-04-01T20:37:12.008Z,2.10
2023-04-01T20:40:44.384Z,1.85
2023-04-01T20:43:55.508Z,1.73
2023-04-01T20:47:15.535Z,1.48
2023-04-01T20:50:50.970Z,1.90
2023-04-01T20:54:07.032Z,2.08
2023-04-01T20:57:33.238Z,1.67
2023-04-01T21:01:10.740Z,1.80
2023-04-01T21:04:39.453Z,1.60
2023-04-01T21:07:50.903Z,1.70
2023-04-01T21:11:15.849Z,1.80
2023-04-01T21:14:32.752Z,1.60
2023-04-01T21:17:39.190Z,2.03
2023-04-01T21:20:58.266Z,2.30
2023-04-01T21:24:31.213Z,1.80
2023-04-01T21:27:37.212Z,2.60
2023-04-01T21:30:46.982Z,2.37
2023-04-01T21:34:19.723Z,2.62
2023-04-01T21:37:50.072Z,2.87
2023-04-01T21:41:02.967Z,2.60
2023-04-01T21:44:50.059Z,3.75
2023-04-01T21:48:28.662Z,4.15
2023-04-01T21:52:20.684Z,3.90
2023-04-01T21:55:42.906Z,3.70
2023-04-01T21:59:17.955Z,3.87
2023-04-01T22:02:43.674Z,3.80
2023-04-01T22:06:13.459Z,4.65
2023-04-01T22:09:26.738Z,4.45
2023-04-01T22:12:46.012Z,5.43
2023-04-01T22:15:58.666Z,4.60
2023-04-01T22:19:43.217Z,4.90
2023-04-01T22:23:07.344Z,4.72
2023-04-01T22:26:33.517Z,4.62
2023-04-01T22:29:54.359Z,5.10
2023-04-01T22:33:06.762Z,5.30
2023-04-01T22:36:19.075Z,5.20
2023-04-01T22:39:37.740Z,6.15
2023-04-01T22:42:49.677Z,5.95
2023-04-01T22:45:56.913Z,6.72
2023-04-01T22:49:18.726Z,6.80
2023-04-01T22:52:42.887Z,7.40
2023-04-01T22:55:53.445Z,7.13
2023-04-01T22:59:43.172Z,8.65
2023-04-01T23:03:09.150Z,9.75
2023-04-01T23:06:42.440Z,8.55
2023-04-01T23:09:45.743Z,8.47
2023-04-01T23:12:52.832Z,8.40
2023-04-01T23:15:56.820Z,8.95
2023-04-01T23:19:14.705Z,8.35
2023-04-01T23:22:31.522Z,8.73
2023-04-01T23:25:43.694Z,8.75
2023-04-01T23:28:51.235Z,8.48
2023-04-01T23:32:05.716Z,8.60
2023-04-01T23:35:18.071Z,9.20
2023-04-01T23:38:24.302Z,9.23
2023-04-01T23:41:31.768Z,9.73
2023-04-01T23:44:37.690Z,9.32
2023-04-01T23:47:42.315Z,7.85
2023-04-01T23:50:47.263Z,8.93
2023-04-01T23:54:04.063Z,7.68
2023-04-01T23:57:14.761Z,4.70
